createdAt,value
2022-08-20T00:01:17.241Z,88.00
2022-08-20T00:03:51.686Z,88.20
2022-08-20T00:06:23.838Z,88.60
2022-08-20T00:08:51.816Z,89.90
2022-08-20T00:11:22.943Z,89.20
2022-08-20T00:13:55.604Z,89.60
2022-08-20T00:16:25.728Z,89.90
2022-08-20T00:18:53.504Z,90.10
2022-08-20T00:21:23.303Z,90.20
2022-08-20T00:23:53.859Z,90.40
2022-08-20T00:26:23.286Z,90.50
2022-08-20T00:28:51.975Z,90.60
2022-08-20T00:31:21.229Z,90.80
2022-08-20T00:33:49.979Z,90.90
2022-08-20T00:36:18.016Z,91.00
2022-08-20T00:38:46.900Z,91.10
2022-08-20T00:41:19.526Z,91.20
2022-08-20T00:43:51.955Z,91.30
2022-08-20T00:46:30.925Z,91.50
2022-08-20T00:49:02.252Z,91.60
2022-08-20T00:51:33.569Z,91.70
2022-08-20T00:54:33.905Z,91.80
2022-08-20T00:57:08.515Z,92.50
2022-08-20T00:59:39.953Z,92.30
2022-08-20T01:02:12.308Z,92.10
2022-08-20T01:04:40.642Z,92.20
2022-08-20T01:07:08.075Z,92.30
2022-08-20T01:09:58.174Z,93.30
2022-08-20T01:12:27.104Z,92.40
2022-08-20T01:14:56.355Z,92.60
2022-08-20T01:17:26.602Z,92.70
2022-08-20T01:20:07.705Z,92.80
2022-08-20T01:23:09.810Z,93.20
2022-08-20T01:25:45.423Z,93.30
2022-08-20T01:28:16.206Z,93.40
2022-08-20T01:30:45.175Z,93.50
2022-08-20T01:33:12.966Z,93.70
2022-08-20T01:35:44.019Z,93.90
2022-08-20T01:38:12.295Z,93.90
2022-08-20T01:41:15.720Z,94.10
2022-08-20T01:43:46.096Z,94.40
2022-08-20T01:46:17.475Z,94.30
2022-08-20T01:48:47.801Z,94.50
2022-08-20T01:51:19.225Z,94.70
2022-08-20T01:53:51.400Z,94.60
2022-08-20T01:56:22.912Z,94.70
2022-08-20T01:58:56.023Z,94.80
2022-08-20T02:01:33.925Z,94.90
2022-08-20T02:04:15.218Z,95.30
2022-08-20T02:06:56.446Z,95.30
2022-08-20T02:09:27.542Z,95.40
2022-08-20T02:11:57.422Z,95.50
2022-08-20T02:14:26.520Z,95.50
2022-08-20T02:16:55.467Z,95.70
2022-08-20T02:19:48.174Z,95.90
2022-08-20T02:22:50.137Z,96.00
2022-08-20T02:25:19.725Z,96.60
2022-08-20T02:27:48.798Z,96.50
2022-08-20T02:30:28.214Z,96.60
2022-08-20T02:33:01.567Z,97.70
2022-08-20T02:35:34.393Z,97.20
2022-08-20T02:38:02.754Z,97.20
2022-08-20T02:40:31.444Z,97.40
2022-08-20T02:43:00.733Z,97.50
2022-08-20T02:45:31.604Z,97.70
2022-08-20T02:47:59.508Z,97.90
2022-08-20T02:50:27.576Z,98.10
2022-08-20T02:52:55.434Z,98.30
2022-08-20T02:55:27.689Z,98.50
2022-08-20T02:57:58.760Z,98.70
2022-08-20T03:00:28.729Z,99.20
2022-08-20T03:02:56.457Z,99.50
2022-08-20T03:05:23.999Z,99.70
2022-08-20T03:07:59.811Z,99.80
2022-08-20T03:10:32.340Z,99.90
2022-08-20T03:13:02.240Z,99.90
2022-08-20T03:15:31.448Z,99.90
2022-08-20T03:17:59.634Z,99.90
2022-08-20T03:20:27.940Z,99.90
2022-08-20T03:22:55.986Z,99.90
2022-08-20T03:25:24.761Z,99.90
2022-08-20T03:27:55.225Z,99.90
2022-08-20T03:30:24.625Z,99.90
2022-08-20T03:32:52.851Z,99.90
2022-08-20T03:35:21.055Z,99.90
2022-08-20T03:37:49.062Z,99.90
2022-08-20T03:40:22.947Z,99.90
2022-08-20T03:42:52.609Z,99.90
2022-08-20T03:45:23.414Z,99.90
2022-08-20T03:47:55.694Z,99.90
2022-08-20T03:50:28.263Z,99.90
2022-08-20T03:52:57.666Z,99.90
2022-08-20T03:55:27.263Z,99.90
2022-08-20T03:57:58.582Z,99.90
2022-08-20T04:00:32.388Z,99.90
2022-08-20T04:03:00.846Z,99.90
2022-08-20T04:05:31.053Z,99.90
2022-08-20T04:08:03.431Z,99.90
2022-08-20T04:10:32.143Z,99.90
2022-08-20T04:13:00.198Z,99.90
2022-08-20T04:15:29.214Z,99.90
2022-08-20T04:17:59.587Z,99.90
2022-08-20T04:20:27.533Z,99.90
2022-08-20T04:22:59.333Z,99.90
2022-08-20T04:25:31.915Z,99.90
2022-08-20T04:28:06.862Z,99.90
2022-08-20T04:30:35.050Z,99.90
2022-08-20T04:33:02.761Z,99.90
2022-08-20T04:35:31.410Z,99.90
2022-08-20T04:38:04.979Z,99.90
2022-08-20T04:40:52.938Z,99.90
2022-08-20T04:43:20.962Z,99.90
2022-08-20T04:45:48.824Z,99.90
2022-08-20T04:48:16.380Z,99.90
2022-08-20T04:50:46.671Z,99.90
2022-08-20T04:53:20.645Z,99.90
2022-08-20T04:55:52.774Z,99.90
2022-08-20T04:58:30.719Z,99.90
2022-08-20T05:01:02.184Z,99.90
2022-08-20T05:03:30.096Z,99.90
2022-08-20T05:05:58.943Z,99.90
2022-08-20T05:08:26.659Z,99.90
2022-08-20T05:10:56.111Z,99.90
2022-08-20T05:13:43.018Z,99.90
2022-08-20T05:16:10.607Z,99.90
2022-08-20T05:18:38.161Z,99.90
2022-08-20T05:21:06.102Z,99.90
2022-08-20T05:23:37.848Z,99.90
2022-08-20T05:26:07.526Z,99.90
2022-08-20T05:28:52.705Z,99.90
2022-08-20T05:31:32.692Z,99.90
2022-08-20T05:34:11.331Z,99.90
2022-08-20T05:36:42.087Z,99.90
2022-08-20T05:39:10.683Z,99.90
2022-08-20T05:41:39.406Z,99.90
2022-08-20T05:44:10.805Z,99.90
2022-08-20T05:46:42.665Z,99.90
2022-08-20T05:49:19.870Z,99.90
2022-08-20T05:51:48.943Z,99.90
2022-08-20T05:54:16.479Z,99.90
2022-08-20T05:56:44.108Z,99.90
2022-08-20T05:59:13.941Z,99.90
2022-08-20T06:01:42.814Z,99.90
2022-08-20T06:04:27.888Z,99.90
2022-08-20T06:07:07.634Z,99.90
2022-08-20T06:09:36.283Z,99.90
2022-08-20T06:12:06.547Z,99.90
2022-08-20T06:14:34.572Z,99.90
2022-08-20T06:17:04.820Z,99.90
2022-08-20T06:19:33.941Z,99.90
2022-08-20T06:22:02.607Z,99.90
2022-08-20T06:24:45.568Z,99.90
2022-08-20T06:27:15.979Z,99.90
2022-08-20T06:29:43.780Z,99.90
2022-08-20T06:32:11.469Z,99.90
2022-08-20T06:34:50.480Z,99.90
2022-08-20T06:37:31.706Z,99.90
2022-08-20T06:40:16.741Z,99.90
2022-08-20T06:42:48.577Z,99.90
2022-08-20T06:45:20.941Z,99.90
2022-08-20T06:47:48.519Z,99.90
2022-08-20T06:50:20.402Z,99.90
2022-08-20T06:52:52.798Z,99.90
2022-08-20T06:55:24.276Z,99.90
2022-08-20T06:58:01.358Z,99.90
2022-08-20T07:00:36.226Z,99.90
2022-08-20T07:03:04.920Z,99.90
2022-08-20T07:05:42.134Z,99.90
2022-08-20T07:08:16.452Z,99.90
2022-08-20T07:10:44.410Z,99.90
2022-08-20T07:13:14.792Z,99.90
2022-08-20T07:15:44.551Z,99.90
2022-08-20T07:18:14.015Z,99.90
2022-08-20T07:20:42.403Z,99.90
2022-08-20T07:23:11.995Z,99.90
2022-08-20T07:25:41.850Z,99.90
2022-08-20T07:28:15.108Z,99.90
2022-08-20T07:31:12.195Z,99.90
2022-08-20T07:33:41.973Z,99.90
2022-08-20T07:36:10.424Z,99.90
2022-08-20T07:38:38.474Z,99.90
2022-08-20T07:41:09.838Z,99.90
2022-08-20T07:43:39.457Z,99.90
2022-08-20T07:46:09.013Z,99.90
2022-08-20T07:48:41.880Z,99.90
2022-08-20T07:51:11.053Z,99.90
2022-08-20T07:53:40.863Z,99.90
2022-08-20T07:56:13.148Z,99.90
2022-08-20T07:58:47.451Z,99.90
2022-08-20T08:01:15.377Z,99.90
2022-08-20T08:03:49.618Z,99.90
2022-08-20T08:06:29.597Z,99.90
2022-08-20T08:09:07.810Z,99.90
2022-08-20T08:11:38.411Z,99.80
2022-08-20T08:14:09.821Z,99.50
2022-08-20T08:16:37.896Z,99.10
2022-08-20T08:19:06.633Z,98.80
2022-08-20T08:21:34.237Z,96.80
2022-08-20T08:24:02.629Z,97.40
2022-08-20T08:26:30.363Z,97.00
2022-08-20T08:29:00.924Z,96.00
2022-08-20T08:31:28.812Z,95.90
2022-08-20T08:33:56.386Z,95.40
2022-08-20T08:36:26.264Z,94.90
2022-08-20T08:38:54.647Z,94.60
2022-08-20T08:41:34.077Z,94.00
2022-08-20T08:44:08.093Z,92.10
2022-08-20T08:46:42.482Z,92.70
2022-08-20T08:49:18.338Z,91.50
2022-08-20T08:51:52.735Z,91.50
2022-08-20T08:54:24.792Z,90.90
2022-08-20T08:56:53.275Z,90.60
2022-08-20T08:59:23.125Z,90.50
2022-08-20T09:01:57.265Z,90.30
2022-08-20T09:04:32.973Z,88.50
2022-08-20T09:07:03.099Z,87.50
2022-08-20T09:09:37.822Z,87.10
2022-08-20T09:12:12.653Z,87.40
2022-08-20T09:14:41.004Z,87.50
2022-08-20T09:17:08.650Z,87.90
2022-08-20T09:19:36.218Z,87.30
2022-08-20T09:22:12.621Z,87.20
2022-08-20T09:24:40.775Z,86.50
2022-08-20T09:27:12.292Z,85.10
2022-08-20T09:29:42.184Z,84.70
2022-08-20T09:32:13.951Z,82.40
2022-08-20T09:34:47.472Z,83.30
2022-08-20T09:37:15.870Z,82.80
2022-08-20T09:39:43.734Z,83.00
2022-08-20T09:42:17.675Z,83.00
2022-08-20T09:44:45.700Z,82.60
2022-08-20T09:47:13.456Z,80.90
2022-08-20T09:49:41.131Z,80.80
2022-08-20T09:52:11.280Z,80.50
2022-08-20T09:54:44.542Z,79.80
2022-08-20T09:57:16.809Z,79.20
2022-08-20T09:59:48.171Z,79.80
2022-08-20T10:02:15.713Z,79.30
2022-08-20T10:04:43.303Z,79.10
2022-08-20T10:07:11.058Z,78.40
2022-08-20T10:09:38.752Z,78.30
2022-08-20T10:12:10.163Z,79.00
2022-08-20T10:14:37.723Z,78.90
2022-08-20T10:17:05.374Z,78.80
2022-08-20T10:19:33.364Z,77.60
2022-08-20T10:22:01.610Z,77.00
2022-08-20T10:24:30.248Z,77.60
2022-08-20T10:26:59.794Z,76.20
2022-08-20T10:29:28.689Z,75.90
2022-08-20T10:31:59.424Z,75.20
2022-08-20T10:34:27.115Z,74.90
2022-08-20T10:36:54.804Z,74.60
2022-08-20T10:39:31.574Z,74.60
2022-08-20T10:42:01.936Z,75.00
2022-08-20T10:44:29.631Z,74.80
2022-08-20T10:46:57.333Z,74.00
2022-08-20T10:49:24.910Z,73.60
2022-08-20T10:51:52.619Z,72.90
2022-08-20T10:54:20.214Z,72.80
2022-08-20T10:56:47.747Z,72.50
2022-08-20T10:59:15.342Z,72.60
2022-08-20T11:01:42.896Z,72.80
2022-08-20T11:04:10.475Z,72.30
2022-08-20T11:06:38.054Z,72.40
2022-08-20T11:09:05.558Z,72.20
2022-08-20T11:11:37.236Z,71.70
2022-08-20T11:14:05.007Z,71.10
2022-08-20T11:16:41.355Z,71.70
2022-08-20T11:19:11.218Z,72.00
2022-08-20T11:21:38.802Z,69.50
2022-08-20T11:24:06.534Z,68.80
2022-08-20T11:26:34.238Z,68.60
2022-08-20T11:29:04.664Z,68.70
2022-08-20T11:31:34.872Z,69.20
2022-08-20T11:34:02.630Z,70.20
2022-08-20T11:36:30.218Z,70.00
2022-08-20T11:38:57.736Z,70.20
2022-08-20T11:41:25.340Z,70.10
2022-08-20T11:44:17.475Z,70.30
2022-08-20T11:46:40.790Z,69.90
2022-08-20T11:49:08.564Z,69.40
2022-08-20T11:51:49.658Z,68.80
2022-08-20T11:54:18.198Z,69.20
2022-08-20T11:56:46.197Z,69.70
2022-08-20T11:59:14.168Z,68.30
2022-08-20T12:01:41.533Z,68.60
2022-08-20T12:04:20.762Z,67.20
2022-08-20T12:06:49.334Z,68.40
2022-08-20T12:09:21.857Z,67.70
2022-08-20T12:11:52.236Z,67.20
2022-08-20T12:14:19.895Z,67.10
2022-08-20T12:16:47.432Z,66.50
2022-08-20T12:19:14.919Z,65.60
2022-08-20T12:21:42.446Z,65.00
2022-08-20T12:24:10.006Z,64.80
2022-08-20T12:26:37.532Z,64.90
2022-08-20T12:29:05.088Z,65.60
2022-08-20T12:31:32.827Z,65.40
2022-08-20T12:34:00.353Z,65.30
2022-08-20T12:36:27.906Z,65.00
2022-08-20T12:38:55.428Z,64.80
2022-08-20T12:41:23.031Z,65.00
2022-08-20T12:43:50.528Z,65.00
2022-08-20T12:46:18.998Z,64.90
2022-08-20T12:48:46.631Z,64.80
2022-08-20T12:51:14.124Z,64.20
2022-08-20T12:53:41.667Z,64.30
2022-08-20T12:56:09.243Z,64.10
2022-08-20T12:58:36.884Z,64.30
2022-08-20T13:01:04.528Z,64.30
2022-08-20T13:03:32.256Z,64.00
2022-08-20T13:06:01.687Z,64.60
2022-08-20T13:08:29.774Z,65.00
2022-08-20T13:11:00.848Z,64.60
2022-08-20T13:13:30.999Z,64.40
2022-08-20T13:15:58.570Z,64.20
2022-08-20T13:18:26.153Z,64.00
2022-08-20T13:20:53.666Z,64.00
2022-08-20T13:23:21.241Z,63.90
2022-08-20T13:25:51.105Z,64.40
2022-08-20T13:28:19.049Z,64.90
2022-08-20T13:30:46.778Z,64.40
2022-08-20T13:33:14.511Z,63.70
2022-08-20T13:35:42.023Z,63.20
2022-08-20T13:38:13.209Z,63.10
2022-08-20T13:40:40.753Z,61.80
2022-08-20T13:43:12.023Z,62.50
2022-08-20T13:45:40.559Z,63.80
2022-08-20T13:48:09.960Z,62.90
2022-08-20T13:50:44.035Z,63.20
2022-08-20T13:53:15.950Z,63.10
2022-08-20T13:55:43.901Z,62.90
2022-08-20T13:58:11.693Z,62.90
2022-08-20T14:00:39.460Z,63.30
2022-08-20T14:03:07.537Z,63.30
2022-08-20T14:05:35.248Z,63.20
2022-08-20T14:08:09.634Z,62.70
2022-08-20T14:10:38.452Z,62.70
2022-08-20T14:13:15.433Z,62.50
2022-08-20T14:15:46.980Z,61.80
2022-08-20T14:18:15.861Z,61.80
2022-08-20T14:20:45.451Z,61.80
2022-08-20T14:23:14.413Z,61.50
2022-08-20T14:25:46.850Z,61.00
2022-08-20T14:28:22.839Z,60.30
2022-08-20T14:30:55.446Z,59.50
2022-08-20T14:33:23.837Z,60.10
2022-08-20T14:35:52.206Z,60.70
2022-08-20T14:38:19.840Z,61.00
2022-08-20T14:40:47.482Z,61.00
2022-08-20T14:43:15.014Z,60.20
2022-08-20T14:45:42.658Z,59.20
2022-08-20T14:48:10.306Z,57.90
2022-08-20T14:50:38.078Z,56.90
2022-08-20T14:53:05.723Z,55.80
2022-08-20T14:55:37.417Z,53.60
2022-08-20T14:58:14.725Z,55.10
2022-08-20T15:00:43.354Z,53.10
2022-08-20T15:03:11.070Z,53.40
2022-08-20T15:05:39.652Z,53.30
2022-08-20T15:08:09.016Z,51.80
2022-08-20T15:10:39.164Z,53.60
2022-08-20T15:13:09.752Z,53.70
2022-08-20T15:15:40.664Z,56.00
2022-08-20T15:18:14.039Z,55.00
2022-08-20T15:20:47.102Z,58.00
2022-08-20T15:23:17.261Z,62.80
2022-08-20T15:25:47.771Z,63.90
2022-08-20T15:28:15.463Z,65.70
2022-08-20T15:30:44.402Z,62.10
2022-08-20T15:33:13.165Z,62.80
2022-08-20T15:35:40.944Z,63.20
2022-08-20T15:38:09.583Z,63.40
2022-08-20T15:40:37.324Z,63.60
2022-08-20T15:43:05.786Z,65.40
2022-08-20T15:45:34.939Z,65.80
2022-08-20T15:48:11.756Z,65.40
2022-08-20T15:50:48.183Z,65.20
2022-08-20T15:53:47.040Z,64.90
2022-08-20T15:56:23.924Z,64.30
2022-08-20T15:59:18.884Z,65.90
2022-08-20T16:02:16.782Z,65.30
2022-08-20T16:05:01.020Z,66.20
2022-08-20T16:07:54.719Z,67.50
2022-08-20T16:10:48.676Z,67.40
2022-08-20T16:13:41.287Z,69.10
2022-08-20T16:16:16.583Z,69.30
2022-08-20T16:18:47.792Z,70.50
2022-08-20T16:21:19.150Z,71.10
2022-08-20T16:23:46.915Z,75.00
2022-08-20T16:26:28.077Z,74.80
2022-08-20T16:29:18.487Z,74.60
2022-08-20T16:32:01.447Z,74.90
2022-08-20T16:34:40.642Z,76.80
2022-08-20T16:37:22.358Z,75.70
2022-08-20T16:39:59.974Z,80.30
2022-08-20T16:42:35.460Z,79.10
2022-08-20T16:45:05.257Z,78.50
2022-08-20T16:47:35.823Z,77.20
2022-08-20T16:50:22.810Z,75.00
2022-08-20T16:52:53.834Z,73.70
2022-08-20T16:55:23.479Z,77.20
2022-08-20T16:57:53.450Z,78.80
2022-08-20T17:00:28.672Z,81.60
2022-08-20T17:03:04.616Z,80.00
2022-08-20T17:05:51.113Z,82.70
2022-08-20T17:08:58.335Z,78.50
2022-08-20T17:11:40.616Z,80.40
2022-08-20T17:14:27.866Z,84.50
2022-08-20T17:17:02.033Z,81.20
2022-08-20T17:19:35.057Z,81.90
2022-08-20T17:22:17.968Z,83.60
2022-08-20T17:24:50.871Z,83.60
2022-08-20T17:27:39.699Z,85.20
2022-08-20T17:30:24.999Z,84.60
2022-08-20T17:33:06.516Z,84.70
2022-08-20T17:35:42.294Z,84.90
2022-08-20T17:38:33.934Z,86.10
2022-08-20T17:41:08.497Z,86.80
2022-08-20T17:43:43.265Z,87.00
2022-08-20T17:46:18.962Z,86.70
2022-08-20T17:48:48.752Z,87.70
2022-08-20T17:51:51.669Z,87.20
2022-08-20T17:54:34.808Z,89.30
2022-08-20T17:57:15.161Z,87.00
2022-08-20T18:00:01.410Z,88.10
2022-08-20T18:02:34.035Z,88.20
2022-08-20T18:05:14.530Z,86.80
2022-08-20T18:07:55.897Z,83.50
2022-08-20T18:10:27.106Z,81.30
2022-08-20T18:13:01.371Z,80.80
2022-08-20T18:15:58.309Z,77.70
2022-08-20T18:18:56.521Z,78.30
2022-08-20T18:22:11.928Z,80.60
2022-08-20T18:25:03.757Z,80.00
2022-08-20T18:27:51.113Z,79.60
2022-08-20T18:30:23.371Z,83.30
2022-08-20T18:33:06.190Z,82.80
2022-08-20T18:35:45.768Z,81.70
2022-08-20T18:38:32.939Z,83.80
2022-08-20T18:41:13.388Z,84.70
2022-08-20T18:43:44.479Z,85.50
2022-08-20T18:46:23.336Z,86.70
2022-08-20T18:48:53.839Z,85.60
2022-08-20T18:51:31.973Z,87.20
2022-08-20T18:54:09.587Z,88.00
2022-08-20T18:56:53.207Z,90.00
2022-08-20T18:59:25.951Z,91.10
2022-08-20T19:01:56.060Z,89.50
2022-08-20T19:04:36.152Z,89.70
2022-08-20T19:07:15.145Z,87.10
2022-08-20T19:09:55.202Z,86.20
2022-08-20T19:12:45.073Z,85.60
2022-08-20T19:15:22.055Z,86.50
2022-08-20T19:18:05.838Z,87.10
2022-08-20T19:20:41.884Z,87.80
2022-08-20T19:23:16.214Z,87.00
2022-08-20T19:25:59.011Z,87.70
2022-08-20T19:28:52.408Z,88.80
2022-08-20T19:31:26.764Z,88.30
2022-08-20T19:34:19.773Z,89.30
2022-08-20T19:37:35.398Z,88.60
2022-08-20T19:40:40.185Z,89.20
2022-08-20T19:43:18.689Z,89.50
2022-08-20T19:45:52.879Z,89.20
2022-08-20T19:48:43.773Z,90.10
2022-08-20T19:51:30.316Z,90.10
2022-08-20T19:53:58.083Z,90.10
2022-08-20T19:56:27.728Z,90.50
2022-08-20T19:59:02.024Z,90.40
2022-08-20T20:01:30.368Z,90.60
2022-08-20T20:04:17.182Z,90.70
2022-08-20T20:06:47.349Z,90.90
2022-08-20T20:09:27.834Z,91.00
2022-08-20T20:12:03.958Z,91.20
2022-08-20T20:14:36.079Z,92.00
2022-08-20T20:17:15.038Z,91.30
2022-08-20T20:19:56.423Z,91.90
2022-08-20T20:22:35.931Z,92.00
2022-08-20T20:25:29.997Z,92.10
2022-08-20T20:28:44.815Z,92.00
2022-08-20T20:31:29.189Z,95.10
2022-08-20T20:34:11.967Z,93.70
2022-08-20T20:36:48.510Z,93.10
2022-08-20T20:40:01.732Z,93.30
2022-08-20T20:42:31.974Z,93.20
2022-08-20T20:45:03.657Z,94.60
2022-08-20T20:47:54.955Z,94.90
2022-08-20T20:50:43.376Z,93.20
2022-08-20T20:53:12.257Z,93.40
2022-08-20T20:55:42.753Z,93.50
2022-08-20T20:58:19.067Z,93.60
2022-08-20T21:00:48.681Z,94.00
2022-08-20T21:03:23.255Z,95.60
2022-08-20T21:06:04.128Z,96.60
2022-08-20T21:08:35.413Z,94.30
2022-08-20T21:11:42.125Z,94.90
2022-08-20T21:14:30.604Z,94.50
2022-08-20T21:17:15.771Z,96.00
2022-08-20T21:19:51.835Z,95.30
2022-08-20T21:22:24.731Z,95.50
2022-08-20T21:25:06.421Z,95.40
2022-08-20T21:27:49.829Z,96.90
2022-08-20T21:30:46.931Z,96.70
2022-08-20T21:33:32.047Z,99.30
2022-08-20T21:36:11.952Z,96.70
2022-08-20T21:38:44.299Z,97.70
2022-08-20T21:41:14.719Z,98.90
2022-08-20T21:43:45.867Z,97.00
2022-08-20T21:46:23.818Z,99.90
2022-08-20T21:48:53.390Z,99.30
2022-08-20T21:51:36.789Z,98.40
2022-08-20T21:54:04.561Z,99.20
2022-08-20T21:56:33.862Z,98.00
2022-08-20T21:59:02.214Z,99.30
2022-08-20T22:01:33.118Z,98.30
2022-08-20T22:04:02.149Z,99.20
2022-08-20T22:06:30.209Z,98.80
2022-08-20T22:08:58.275Z,99.60
2022-08-20T22:11:31.087Z,99.90
2022-08-20T22:14:18.975Z,99.90
2022-08-20T22:16:50.669Z,99.90
2022-08-20T22:19:32.591Z,99.90
2022-08-20T22:22:05.563Z,99.90
2022-08-20T22:24:33.316Z,99.90
2022-08-20T22:27:09.564Z,99.90
2022-08-20T22:29:37.489Z,99.90
2022-08-20T22:32:05.292Z,99.90
2022-08-20T22:34:35.356Z,99.90
2022-08-20T22:37:07.872Z,99.90
2022-08-20T22:39:37.995Z,99.90
2022-08-20T22:42:05.986Z,99.90
2022-08-20T22:44:33.649Z,99.90
2022-08-20T22:47:06.927Z,99.90
2022-08-20T22:49:36.888Z,99.90
2022-08-20T22:52:05.109Z,99.90
2022-08-20T22:54:33.230Z,99.90
2022-08-20T22:57:01.406Z,99.90
2022-08-20T22:59:28.957Z,99.90
2022-08-20T23:01:59.495Z,99.90
2022-08-20T23:04:30.128Z,99.90
2022-08-20T23:06:58.912Z,99.90
2022-08-20T23:09:30.204Z,99.90
2022-08-20T23:11:58.074Z,99.90
2022-08-20T23:14:27.059Z,99.90
2022-08-20T23:17:11.329Z,99.90
2022-08-20T23:19:43.395Z,99.90
2022-08-20T23:22:14.291Z,99.90
2022-08-20T23:24:42.319Z,99.90
2022-08-20T23:27:16.959Z,99.90
2022-08-20T23:29:47.656Z,99.90
2022-08-20T23:32:20.329Z,99.90
2022-08-20T23:34:48.151Z,99.90
2022-08-20T23:37:21.496Z,99.90
2022-08-20T23:39:49.914Z,99.90
2022-08-20T23:42:21.086Z,99.90
2022-08-20T23:44:53.548Z,99.90
2022-08-20T23:47:21.670Z,99.90
2022-08-20T23:49:49.485Z,99.90
2022-08-20T23:52:17.786Z,99.90
2022-08-20T23:54:45.625Z,99.90
2022-08-20T23:57:13.326Z,99.90
2022-08-20T23:59:41.677Z,99.90
